sensor_id;sensor_type;location;lat;lon;timestamp;pressure;altitude;pressure_sealevel;temperature;humidity
31771;BME280;18343;50.152;8.182;2022-07-29T00:00:50;97383.84;;;21.79;61.44
31771;BME280;18343;50.152;8.182;2022-07-29T00:03:18;97377.81;;;21.77;62.02
31771;BME280;18343;50.152;8.182;2022-07-29T00:05:45;97375.09;;;21.77;62.11
31771;BME280;18343;50.152;8.182;2022-07-29T00:08:12;97371.78;;;21.75;62.51
31771;BME280;18343;50.152;8.182;2022-07-29T00:10:41;97372.03;;;21.74;62.97
31771;BME280;18343;50.152;8.182;2022-07-29T00:13:10;97372.31;;;21.72;62.96
31771;BME280;18343;50.152;8.182;2022-07-29T00:15:37;97373.66;;;21.70;63.40
31771;BME280;18343;50.152;8.182;2022-07-29T00:18:04;97367.63;;;21.68;63.75
31771;BME280;18343;50.152;8.182;2022-07-29T00:20:31;97360.78;;;21.65;64.12
31771;BME280;18343;50.152;8.182;2022-07-29T00:22:58;97378.84;;;21.66;64.57
31771;BME280;18343;50.152;8.182;2022-07-29T00:25:26;97362.94;;;21.63;64.69
31771;BME280;18343;50.152;8.182;2022-07-29T00:27:53;97373.06;;;21.62;64.94
31771;BME280;18343;50.152;8.182;2022-07-29T00:30:22;97365.13;;;21.61;64.68
31771;BME280;18343;50.152;8.182;2022-07-29T00:32:49;97372.81;;;21.59;65.31
31771;BME280;18343;50.152;8.182;2022-07-29T00:35:16;97364.59;;;21.59;65.48
31771;BME280;18343;50.152;8.182;2022-07-29T00:38:01;97369.50;;;21.57;65.93
31771;BME280;18343;50.152;8.182;2022-07-29T00:40:28;97378.78;;;21.56;66.07
31771;BME280;18343;50.152;8.182;2022-07-29T00:42:56;97367.84;;;21.56;66.72
31771;BME280;18343;50.152;8.182;2022-07-29T00:45:24;97363.47;;;21.55;66.53
31771;BME280;18343;50.152;8.182;2022-07-29T00:47:51;97359.09;;;21.54;67.06
31771;BME280;18343;50.152;8.182;2022-07-29T00:50:18;97357.44;;;21.53;66.80
31771;BME280;18343;50.152;8.182;2022-07-29T00:52:46;97354.13;;;21.51;67.33
31771;BME280;18343;50.152;8.182;2022-07-29T00:55:15;97353.56;;;21.49;67.39
31771;BME280;18343;50.152;8.182;2022-07-29T00:57:44;97356.03;;;21.50;67.67
31771;BME280;18343;50.152;8.182;2022-07-29T01:00:15;97348.09;;;21.49;67.42
31771;BME280;18343;50.152;8.182;2022-07-29T01:02:44;97345.88;;;21.46;67.86
31771;BME280;18343;50.152;8.182;2022-07-29T01:05:16;97348.88;;;21.44;68.09
31771;BME280;18343;50.152;8.182;2022-07-29T01:07:46;97348.06;;;21.44;68.49
31771;BME280;18343;50.152;8.182;2022-07-29T01:10:16;97344.75;;;21.42;68.56
31771;BME280;18343;50.152;8.182;2022-07-29T01:12:47;97346.94;;;21.40;68.60
31771;BME280;18343;50.152;8.182;2022-07-29T01:15:16;97339.81;;;21.39;69.00
31771;BME280;18343;50.152;8.182;2022-07-29T01:17:53;97339.50;;;21.35;68.42
31771;BME280;18343;50.152;8.182;2022-07-29T01:20:31;97343.34;;;21.34;69.02
31771;BME280;18343;50.152;8.182;2022-07-29T01:23:42;97344.72;;;21.32;69.00
31771;BME280;18343;50.152;8.182;2022-07-29T01:26:31;97346.91;;;21.30;69.34
31771;BME280;18343;50.152;8.182;2022-07-29T01:29:07;97340.03;;;21.27;69.45
31771;BME280;18343;50.152;8.182;2022-07-29T01:31:45;97339.22;;;21.26;69.89
31771;BME280;18343;50.152;8.182;2022-07-29T01:34:21;97339.47;;;21.25;69.89
31771;BME280;18343;50.152;8.182;2022-07-29T01:36:57;97326.88;;;21.24;70.05
31771;BME280;18343;50.152;8.182;2022-07-29T01:39:30;97317.84;;;21.23;70.32
31771;BME280;18343;50.152;8.182;2022-07-29T01:42:06;97325.22;;;21.23;70.12
31771;BME280;18343;50.152;8.182;2022-07-29T01:44:45;97312.91;;;21.20;70.62
31771;BME280;18343;50.152;8.182;2022-07-29T01:47:19;97301.97;;;21.20;71.13
31771;BME280;18343;50.152;8.182;2022-07-29T01:49:52;97312.31;;;21.18;70.92
31771;BME280;18343;50.152;8.182;2022-07-29T01:52:27;97307.94;;;21.17;71.02
31771;BME280;18343;50.152;8.182;2022-07-29T01:55:02;97305.19;;;21.17;71.09
31771;BME280;18343;50.152;8.182;2022-07-29T01:57:32;97301.91;;;21.15;71.18
31771;BME280;18343;50.152;8.182;2022-07-29T02:00:03;97306.53;;;21.15;71.31
31771;BME280;18343;50.152;8.182;2022-07-29T02:02:33;97303.25;;;21.13;71.60
31771;BME280;18343;50.152;8.182;2022-07-29T02:05:03;97311.44;;;21.13;71.79
31771;BME280;18343;50.152;8.182;2022-07-29T02:07:33;97305.41;;;21.11;71.92
31771;BME280;18343;50.152;8.182;2022-07-29T02:10:03;97301.03;;;21.10;72.14
31771;BME280;18343;50.152;8.182;2022-07-29T02:12:32;97290.09;;;21.10;72.07
31771;BME280;18343;50.152;8.182;2022-07-29T02:15:05;97285.97;;;21.07;71.82
31771;BME280;18343;50.152;8.182;2022-07-29T02:17:37;97276.94;;;21.07;72.08
31771;BME280;18343;50.152;8.182;2022-07-29T02:20:07;97271.72;;;21.00;71.73
31771;BME280;18343;50.152;8.182;2022-07-29T02:22:38;97279.09;;;21.00;72.29
31771;BME280;18343;50.152;8.182;2022-07-29T02:25:07;97284.56;;;21.00;72.34
31771;BME280;18343;50.152;8.182;2022-07-29T02:27:35;97279.38;;;20.98;72.59
31771;BME280;18343;50.152;8.182;2022-07-29T02:30:07;97286.19;;;20.95;72.19
31771;BME280;18343;50.152;8.182;2022-07-29T02:32:38;97283.72;;;20.94;72.50
31771;BME280;18343;50.152;8.182;2022-07-29T02:35:08;97269.22;;;20.93;72.43
31771;BME280;18343;50.152;8.182;2022-07-29T02:37:36;97269.22;;;20.93;72.70
31771;BME280;18343;50.152;8.182;2022-07-29T02:40:09;97257.47;;;20.93;72.54
31771;BME280;18343;50.152;8.182;2022-07-29T02:42:37;97254.44;;;20.89;72.67
31771;BME280;18343;50.152;8.182;2022-07-29T02:45:08;97258.25;;;20.88;73.00
31771;BME280;18343;50.152;8.182;2022-07-29T02:47:40;97241.03;;;20.88;73.01
31771;BME280;18343;50.152;8.182;2022-07-29T02:50:14;97238.53;;;20.86;72.87
31771;BME280;18343;50.152;8.182;2022-07-29T02:52:47;97242.09;;;20.87;73.29
31771;BME280;18343;50.152;8.182;2022-07-29T02:55:25;97261.75;;;20.84;73.07
31771;BME280;18343;50.152;8.182;2022-07-29T02:57:59;97266.66;;;20.82;73.13
31771;BME280;18343;50.152;8.182;2022-07-29T03:00:31;97258.72;;;20.80;73.53
31771;BME280;18343;50.152;8.182;2022-07-29T03:03:06;97249.16;;;20.78;73.22
31771;BME280;18343;50.152;8.182;2022-07-29T03:05:34;97246.69;;;20.76;73.72
31771;BME280;18343;50.152;8.182;2022-07-29T03:08:04;97252.16;;;20.76;73.69
31771;BME280;18343;50.152;8.182;2022-07-29T03:10:32;97256.81;;;20.76;73.98
31771;BME280;18343;50.152;8.182;2022-07-29T03:13:01;97263.91;;;20.77;74.02
31771;BME280;18343;50.152;8.182;2022-07-29T03:15:31;97256.25;;;20.74;73.94
31771;BME280;18343;50.152;8.182;2022-07-29T03:17:59;97261.13;;;20.72;74.00
31771;BME280;18343;50.152;8.182;2022-07-29T03:20:26;97256.75;;;20.71;74.30
31771;BME280;18343;50.152;8.182;2022-07-29T03:22:54;97258.41;;;20.72;74.41
31771;BME280;18343;50.152;8.182;2022-07-29T03:25:21;97263.06;;;20.71;74.65
31771;BME280;18343;50.152;8.182;2022-07-29T03:27:48;97267.69;;;20.71;74.49
31771;BME280;18343;50.152;8.182;2022-07-29T03:30:16;97270.94;;;20.68;74.39
31771;BME280;18343;50.152;8.182;2022-07-29T03:32:45;97261.09;;;20.67;74.61
31771;BME280;18343;50.152;8.182;2022-07-29T03:35:12;97259.44;;;20.66;74.95
31771;BME280;18343;50.152;8.182;2022-07-29T03:37:39;97259.44;;;20.66;74.97
31771;BME280;18343;50.152;8.182;2022-07-29T03:40:09;97258.88;;;20.64;74.71
31771;BME280;18343;50.152;8.182;2022-07-29T03:42:40;97262.69;;;20.63;75.05
31771;BME280;18343;50.152;8.182;2022-07-29T03:45:13;97256.66;;;20.60;74.75
31771;BME280;18343;50.152;8.182;2022-07-29T03:47:47;97251.72;;;20.57;74.87
31771;BME280;18343;50.152;8.182;2022-07-29T03:50:16;97252.53;;;20.58;75.15
31771;BME280;18343;50.152;8.182;2022-07-29T03:52:45;97250.91;;;20.57;75.11
31771;BME280;18343;50.152;8.182;2022-07-29T03:55:14;97252.25;;;20.54;75.06
31771;BME280;18343;50.152;8.182;2022-07-29T03:57:44;97250.06;;;20.51;74.86
31771;BME280;18343;50.152;8.182;2022-07-29T04:00:12;97254.69;;;20.51;75.26
31771;BME280;18343;50.152;8.182;2022-07-29T04:02:41;97259.59;;;20.49;75.28
31771;BME280;18343;50.152;8.182;2022-07-29T04:05:14;97255.22;;;20.48;75.54
31771;BME280;18343;50.152;8.182;2022-07-29T04:07:44;97260.94;;;20.46;75.24
31771;BME280;18343;50.152;8.182;2022-07-29T04:10:12;97265.56;;;20.46;75.24
31771;BME280;18343;50.152;8.182;2022-07-29T04:12:39;97268.56;;;20.44;75.60
31771;BME280;18343;50.152;8.182;2022-07-29T04:15:07;97270.72;;;20.42;75.33
31771;BME280;18343;50.152;8.182;2022-07-29T04:17:35;97275.63;;;20.40;75.36
31771;BME280;18343;50.152;8.182;2022-07-29T04:20:03;97282.16;;;20.39;75.45
31771;BME280;18343;50.152;8.182;2022-07-29T04:22:31;97278.88;;;20.37;75.44
31771;BME280;18343;50.152;8.182;2022-07-29T04:24:59;97281.81;;;20.36;75.58
31771;BME280;18343;50.152;8.182;2022-07-29T04:27:26;97279.34;;;20.34;75.70
31771;BME280;18343;50.152;8.182;2022-07-29T04:29:53;97283.16;;;20.33;75.87
31771;BME280;18343;50.152;8.182;2022-07-29T04:32:20;97285.06;;;20.33;75.49
31771;BME280;18343;50.152;8.182;2022-07-29T04:34:49;97284.50;;;20.31;75.73
31771;BME280;18343;50.152;8.182;2022-07-29T04:37:17;97281.19;;;20.28;75.53
31771;BME280;18343;50.152;8.182;2022-07-29T04:39:45;97289.66;;;20.27;75.27
31771;BME280;18343;50.152;8.182;2022-07-29T04:42:12;97296.19;;;20.26;75.80
31771;BME280;18343;50.152;8.182;2022-07-29T04:44:39;97287.47;;;20.24;75.67
31771;BME280;18343;50.152;8.182;2022-07-29T04:47:08;97296.75;;;20.23;75.79
31771;BME280;18343;50.152;8.182;2022-07-29T04:49:38;97285.25;;;20.21;75.76
31771;BME280;18343;50.152;8.182;2022-07-29T04:52:06;97286.31;;;20.20;75.71
31771;BME280;18343;50.152;8.182;2022-07-29T04:54:33;97290.13;;;20.19;75.68
31771;BME280;18343;50.152;8.182;2022-07-29T04:57:02;97295.03;;;20.17;75.59
31771;BME280;18343;50.152;8.182;2022-07-29T04:59:29;97298.84;;;20.16;75.70
31771;BME280;18343;50.152;8.182;2022-07-29T05:01:57;97293.63;;;20.14;75.73
31771;BME280;18343;50.152;8.182;2022-07-29T05:04:24;97286.28;;;20.15;76.13
31771;BME280;18343;50.152;8.182;2022-07-29T05:06:51;97293.06;;;20.12;75.95
31771;BME280;18343;50.152;8.182;2022-07-29T05:09:19;97295.78;;;20.12;76.04
31771;BME280;18343;50.152;8.182;2022-07-29T05:11:46;97285.97;;;20.11;76.26
31771;BME280;18343;50.152;8.182;2022-07-29T05:14:15;97285.38;;;20.09;75.95
31771;BME280;18343;50.152;8.182;2022-07-29T05:16:42;97293.56;;;20.09;76.16
31771;BME280;18343;50.152;8.182;2022-07-29T05:19:10;97293.84;;;20.08;76.40
31771;BME280;18343;50.152;8.182;2022-07-29T05:21:37;97297.63;;;20.07;76.45
31771;BME280;18343;50.152;8.182;2022-07-29T05:24:05;97289.44;;;20.07;76.13
31771;BME280;18343;50.152;8.182;2022-07-29T05:26:32;97290.53;;;20.06;76.53
31771;BME280;18343;50.152;8.182;2022-07-29T05:28:59;97286.16;;;20.05;76.27
31771;BME280;18343;50.152;8.182;2022-07-29T05:31:28;97289.97;;;20.04;76.28
31771;BME280;18343;50.152;8.182;2022-07-29T05:33:55;97293.78;;;20.03;76.54
31771;BME280;18343;50.152;8.182;2022-07-29T05:36:22;97289.38;;;20.02;76.46
31771;BME280;18343;50.152;8.182;2022-07-29T05:38:49;97292.13;;;20.02;76.54
31771;BME280;18343;50.152;8.182;2022-07-29T05:41:17;97295.94;;;20.01;76.61
31771;BME280;18343;50.152;8.182;2022-07-29T05:43:45;97293.19;;;20.01;76.74
31771;BME280;18343;50.152;8.182;2022-07-29T05:46:13;97299.75;;;20.00;76.91
31771;BME280;18343;50.152;8.182;2022-07-29T05:48:42;97300.56;;;20.00;76.88
31771;BME280;18343;50.152;8.182;2022-07-29T05:51:09;97298.66;;;20.01;77.14
31771;BME280;18343;50.152;8.182;2022-07-29T05:53:37;97297.84;;;20.00;77.00
31771;BME280;18343;50.152;8.182;2022-07-29T05:56:05;97294.03;;;20.01;77.69
31771;BME280;18343;50.152;8.182;2022-07-29T05:58:33;97300.56;;;20.00;77.12
31771;BME280;18343;50.152;8.182;2022-07-29T06:01:00;97310.41;;;20.01;77.53
31771;BME280;18343;50.152;8.182;2022-07-29T06:03:28;97300.31;;;20.02;77.43
31771;BME280;18343;50.152;8.182;2022-07-29T06:05:57;97317.75;;;20.01;77.59
31771;BME280;18343;50.152;8.182;2022-07-29T06:08:25;97315.03;;;20.01;77.60
31771;BME280;18343;50.152;8.182;2022-07-29T06:10:52;97306.03;;;20.00;77.76
31771;BME280;18343;50.152;8.182;2022-07-29T06:13:19;97306.84;;;20.01;77.76
31771;BME280;18343;50.152;8.182;2022-07-29T06:15:46;97313.38;;;20.00;77.90
31771;BME280;18343;50.152;8.182;2022-07-29T06:18:14;97316.94;;;20.00;78.00
31771;BME280;18343;50.152;8.182;2022-07-29T06:20:41;97310.66;;;20.00;78.13
31771;BME280;18343;50.152;8.182;2022-07-29T06:23:10;97315.03;;;20.01;78.02
31771;BME280;18343;50.152;8.182;2022-07-29T06:25:39;97314.22;;;20.00;78.32
31771;BME280;18343;50.152;8.182;2022-07-29T06:28:06;97317.50;;;20.02;78.50
31771;BME280;18343;50.152;8.182;2022-07-29T06:30:33;97317.50;;;20.02;78.60
31771;BME280;18343;50.152;8.182;2022-07-29T06:33:00;97321.06;;;20.03;78.86
31771;BME280;18343;50.152;8.182;2022-07-29T06:35:28;97318.09;;;20.04;79.07
31771;BME280;18343;50.152;8.182;2022-07-29T06:37:55;97322.47;;;20.05;78.84
31771;BME280;18343;50.152;8.182;2022-07-29T06:40:24;97330.66;;;20.05;78.99
31771;BME280;18343;50.152;8.182;2022-07-29T06:43:08;97327.94;;;20.05;78.96
31771;BME280;18343;50.152;8.182;2022-07-29T06:45:36;97319.75;;;20.05;79.10
31771;BME280;18343;50.152;8.182;2022-07-29T06:48:06;97327.94;;;20.05;78.73
31771;BME280;18343;50.152;8.182;2022-07-29T06:50:33;97325.19;;;20.05;78.84
31771;BME280;18343;50.152;8.182;2022-07-29T06:53:01;97324.94;;;20.07;78.91
31771;BME280;18343;50.152;8.182;2022-07-29T06:55:29;97327.66;;;20.07;78.76
31771;BME280;18343;50.152;8.182;2022-07-29T06:57:56;97327.41;;;20.08;78.89
31771;BME280;18343;50.152;8.182;2022-07-29T07:00:24;97326.91;;;20.11;78.90
31771;BME280;18343;50.152;8.182;2022-07-29T07:02:51;97329.38;;;20.13;78.81
31771;BME280;18343;50.152;8.182;2022-07-29T07:05:19;97329.97;;;20.15;78.57
31771;BME280;18343;50.152;8.182;2022-07-29T07:07:46;97328.63;;;20.17;78.57
31771;BME280;18343;50.152;8.182;2022-07-29T07:10:13;97332.75;;;20.20;79.01
31771;BME280;18343;50.152;8.182;2022-07-29T07:12:42;97342.34;;;20.22;78.75
31771;BME280;18343;50.152;8.182;2022-07-29T07:15:10;97344.81;;;20.24;78.41
31771;BME280;18343;50.152;8.182;2022-07-29T07:17:37;97339.88;;;20.26;78.67
31771;BME280;18343;50.152;8.182;2022-07-29T07:20:06;97339.38;;;20.29;78.95
31771;BME280;18343;50.152;8.182;2022-07-29T07:22:33;97334.22;;;20.33;78.82
31771;BME280;18343;50.152;8.182;2022-07-29T07:25:00;97336.72;;;20.34;78.85
31771;BME280;18343;50.152;8.182;2022-07-29T07:27:27;97337.88;;;20.38;78.58
31771;BME280;18343;50.152;8.182;2022-07-29T07:29:57;97336.53;;;20.41;78.69
31771;BME280;18343;50.152;8.182;2022-07-29T07:32:24;97339.00;;;20.42;78.76
31771;BME280;18343;50.152;8.182;2022-07-29T07:34:51;97345.88;;;20.45;78.68
31771;BME280;18343;50.152;8.182;2022-07-29T07:37:18;97348.91;;;20.48;78.44
31771;BME280;18343;50.152;8.182;2022-07-29T07:39:46;97344.03;;;20.50;78.47
31771;BME280;18343;50.152;8.182;2022-07-29T07:42:13;97338.84;;;20.54;78.66
31771;BME280;18343;50.152;8.182;2022-07-29T07:44:40;97344.63;;;20.57;78.57
31771;BME280;18343;50.152;8.182;2022-07-29T07:47:09;97338.06;;;20.58;78.55
31771;BME280;18343;50.152;8.182;2022-07-29T07:49:36;97336.72;;;20.61;78.52
31771;BME280;18343;50.152;8.182;2022-07-29T07:52:04;97339.78;;;20.65;78.25
31771;BME280;18343;50.152;8.182;2022-07-29T07:54:31;97334.06;;;20.66;77.77
31771;BME280;18343;50.152;8.182;2022-07-29T07:56:58;97343.06;;;20.67;77.71
31771;BME280;18343;50.152;8.182;2022-07-29T07:59:26;97344.47;;;20.69;77.37
31771;BME280;18343;50.152;8.182;2022-07-29T08:01:53;97341.22;;;20.72;77.60
31771;BME280;18343;50.152;8.182;2022-07-29T08:04:22;97342.88;;;20.73;77.75
31771;BME280;18343;50.152;8.182;2022-07-29T08:06:49;97345.66;;;20.78;77.77
31771;BME280;18343;50.152;8.182;2022-07-29T08:09:16;97347.00;;;20.81;77.80
31771;BME280;18343;50.152;8.182;2022-07-29T08:11:43;97345.41;;;20.85;77.33
31771;BME280;18343;50.152;8.182;2022-07-29T08:14:11;97353.66;;;20.90;76.90
31771;BME280;18343;50.152;8.182;2022-07-29T08:16:39;97348.75;;;20.92;76.90
31771;BME280;18343;50.152;8.182;2022-07-29T08:19:06;97347.41;;;20.94;76.84
31771;BME280;18343;50.152;8.182;2022-07-29T08:21:35;97346.06;;;20.97;77.12
31771;BME280;18343;50.152;8.182;2022-07-29T08:24:03;97348.84;;;21.02;76.55
31771;BME280;18343;50.152;8.182;2022-07-29T08:26:45;97339.56;;;21.03;76.17
31771;BME280;18343;50.152;8.182;2022-07-29T08:29:12;97345.84;;;21.04;75.96
31771;BME280;18343;50.152;8.182;2022-07-29T08:31:40;97353.78;;;21.05;75.68
31771;BME280;18343;50.152;8.182;2022-07-29T08:34:07;97355.41;;;21.06;75.21
31771;BME280;18343;50.152;8.182;2022-07-29T08:36:36;97356.53;;;21.05;75.10
31771;BME280;18343;50.152;8.182;2022-07-29T08:39:03;97360.38;;;21.09;75.43
31771;BME280;18343;50.152;8.182;2022-07-29T08:41:31;97360.41;;;21.14;75.37
31771;BME280;18343;50.152;8.182;2022-07-29T08:43:58;97356.41;;;21.22;75.35
31771;BME280;18343;50.152;8.182;2022-07-29T08:46:25;97356.19;;;21.28;75.53
31771;BME280;18343;50.152;8.182;2022-07-29T08:48:52;97360.03;;;21.33;75.22
31771;BME280;18343;50.152;8.182;2022-07-29T08:51:20;97361.16;;;21.37;75.26
31771;BME280;18343;50.152;8.182;2022-07-29T08:53:50;97369.38;;;21.42;75.45
31771;BME280;18343;50.152;8.182;2022-07-29T08:56:18;97359.56;;;21.46;75.30
31771;BME280;18343;50.152;8.182;2022-07-29T08:58:47;97360.13;;;21.48;74.38
31771;BME280;18343;50.152;8.182;2022-07-29T09:01:17;97365.59;;;21.48;74.23
31771;BME280;18343;50.152;8.182;2022-07-29T09:03:48;97362.59;;;21.49;74.17
31771;BME280;18343;50.152;8.182;2022-07-29T09:06:18;97368.91;;;21.50;74.04
31771;BME280;18343;50.152;8.182;2022-07-29T09:08:49;97364.56;;;21.54;73.69
31771;BME280;18343;50.152;8.182;2022-07-29T09:11:16;97361.56;;;21.55;73.66
31771;BME280;18343;50.152;8.182;2022-07-29T09:13:44;97357.19;;;21.59;73.65
31771;BME280;18343;50.152;8.182;2022-07-29T09:16:12;97358.84;;;21.60;72.73
31771;BME280;18343;50.152;8.182;2022-07-29T09:18:42;97355.00;;;21.61;73.21
31771;BME280;18343;50.152;8.182;2022-07-29T09:21:12;97360.50;;;21.67;72.90
31771;BME280;18343;50.152;8.182;2022-07-29T09:24:04;97358.59;;;21.67;73.14
31771;BME280;18343;50.152;8.182;2022-07-29T09:26:34;97359.41;;;21.68;72.19
31771;BME280;18343;50.152;8.182;2022-07-29T09:29:09;97353.69;;;21.69;73.02
31771;BME280;18343;50.152;8.182;2022-07-29T09:31:39;97354.84;;;21.78;72.44
31771;BME280;18343;50.152;8.182;2022-07-29T09:34:07;97351.03;;;21.84;72.63
31771;BME280;18343;50.152;8.182;2022-07-29T09:36:42;97353.25;;;21.87;72.62
31771;BME280;18343;50.152;8.182;2022-07-29T09:39:11;97350.22;;;21.89;72.07
31771;BME280;18343;50.152;8.182;2022-07-29T09:41:49;97355.41;;;21.90;72.58
31771;BME280;18343;50.152;8.182;2022-07-29T09:44:19;97349.16;;;21.95;71.77
31771;BME280;18343;50.152;8.182;2022-07-29T09:47:04;97347.53;;;21.99;72.50
31771;BME280;18343;50.152;8.182;2022-07-29T09:49:33;97350.06;;;22.06;72.09
31771;BME280;18343;50.152;8.182;2022-07-29T09:52:05;97338.56;;;22.09;72.12
31771;BME280;18343;50.152;8.182;2022-07-29T09:54:35;97346.81;;;22.14;72.09
31771;BME280;18343;50.152;8.182;2022-07-29T09:57:06;97349.53;;;22.19;72.11
31771;BME280;18343;50.152;8.182;2022-07-29T09:59:35;97355.03;;;22.24;71.73
31771;BME280;18343;50.152;8.182;2022-07-29T10:02:11;97354.50;;;22.27;71.84
31771;BME280;18343;50.152;8.182;2022-07-29T10:04:41;97352.31;;;22.29;70.91
31771;BME280;18343;50.152;8.182;2022-07-29T10:07:09;97347.66;;;22.29;71.06
31771;BME280;18343;50.152;8.182;2022-07-29T10:09:38;97344.91;;;22.29;70.70
31771;BME280;18343;50.152;8.182;2022-07-29T10:12:08;97347.94;;;22.33;70.54
31771;BME280;18343;50.152;8.182;2022-07-29T10:14:37;97338.94;;;22.38;70.53
31771;BME280;18343;50.152;8.182;2022-07-29T10:17:06;97339.47;;;22.40;70.43
31771;BME280;18343;50.152;8.182;2022-07-29T10:19:35;97343.03;;;22.45;70.45
31771;BME280;18343;50.152;8.182;2022-07-29T10:22:05;97343.88;;;22.51;70.97
31771;BME280;18343;50.152;8.182;2022-07-29T10:24:34;97337.56;;;22.55;70.49
31771;BME280;18343;50.152;8.182;2022-07-29T10:27:06;97342.25;;;22.60;70.34
31771;BME280;18343;50.152;8.182;2022-07-29T10:29:34;97343.34;;;22.64;70.25
31771;BME280;18343;50.152;8.182;2022-07-29T10:32:38;97339.81;;;22.69;70.63
31771;BME280;18343;50.152;8.182;2022-07-29T10:35:24;97341.69;;;22.73;70.78
31771;BME280;18343;50.152;8.182;2022-07-29T10:38:42;97339.28;;;22.82;70.92
31771;BME280;18343;50.152;8.182;2022-07-29T10:41:47;97335.72;;;22.86;70.94
31771;BME280;18343;50.152;8.182;2022-07-29T10:44:22;97328.88;;;22.89;70.11
31771;BME280;18343;50.152;8.182;2022-07-29T10:46:51;97333.81;;;22.92;69.71
31771;BME280;18343;50.152;8.182;2022-07-29T10:49:21;97330.53;;;22.95;70.28
31771;BME280;18343;50.152;8.182;2022-07-29T10:52:08;97332.13;;;23.01;70.11
31771;BME280;18343;50.152;8.182;2022-07-29T10:54:48;97327.75;;;23.05;69.75
31771;BME280;18343;50.152;8.182;2022-07-29T10:57:27;97322.53;;;23.09;69.47
31771;BME280;18343;50.152;8.182;2022-07-29T11:00:31;97332.69;;;23.13;70.18
31771;BME280;18343;50.152;8.182;2022-07-29T11:02:59;97329.94;;;23.18;69.47
31771;BME280;18343;50.152;8.182;2022-07-29T11:05:27;97319.25;;;23.22;69.42
31771;BME280;18343;50.152;8.182;2022-07-29T11:08:18;97326.13;;;23.24;69.83
31771;BME280;18343;50.152;8.182;2022-07-29T11:10:46;97323.06;;;23.31;69.71
31771;BME280;18343;50.152;8.182;2022-07-29T11:13:46;97324.97;;;23.41;69.64
31771;BME280;18343;50.152;8.182;2022-07-29T11:16:18;97325.50;;;23.48;69.61
31771;BME280;18343;50.152;8.182;2022-07-29T11:19:21;97316.72;;;23.51;69.51
31771;BME280;18343;50.152;8.182;2022-07-29T11:21:49;97312.59;;;23.53;69.13
31771;BME280;18343;50.152;8.182;2022-07-29T11:24:20;97314.25;;;23.59;69.42
31771;BME280;18343;50.152;8.182;2022-07-29T11:27:13;97313.97;;;23.66;69.01
31771;BME280;18343;50.152;8.182;2022-07-29T11:29:53;97310.38;;;23.71;68.82
31771;BME280;18343;50.152;8.182;2022-07-29T11:32:23;97306.25;;;23.73;68.24
31771;BME280;18343;50.152;8.182;2022-07-29T11:35:13;97306.53;;;23.77;68.83
31771;BME280;18343;50.152;8.182;2022-07-29T11:37:41;97308.41;;;23.81;67.36
31771;BME280;18343;50.152;8.182;2022-07-29T11:40:16;97305.38;;;23.83;67.71
31771;BME280;18343;50.152;8.182;2022-07-29T11:42:49;97304.81;;;23.86;67.22
31771;BME280;18343;50.152;8.182;2022-07-29T11:45:25;97292.44;;;23.88;67.64
31771;BME280;18343;50.152;8.182;2022-07-29T11:47:59;97293.78;;;23.96;66.80
31771;BME280;18343;50.152;8.182;2022-07-29T11:50:33;97290.19;;;24.01;67.57
31771;BME280;18343;50.152;8.182;2022-07-29T11:53:03;97294.56;;;24.07;66.74
31771;BME280;18343;50.152;8.182;2022-07-29T11:55:30;97290.66;;;24.13;66.83
31771;BME280;18343;50.152;8.182;2022-07-29T11:58:01;97285.44;;;24.16;66.34
31771;BME280;18343;50.152;8.182;2022-07-29T12:00:31;97282.66;;;24.21;66.39
31771;BME280;18343;50.152;8.182;2022-07-29T12:03:03;97287.06;;;24.27;66.41
31771;BME280;18343;50.152;8.182;2022-07-29T12:05:38;97284.28;;;24.33;66.37
31771;BME280;18343;50.152;8.182;2022-07-29T12:08:14;97279.84;;;24.37;66.52
31771;BME280;18343;50.152;8.182;2022-07-29T12:10:42;97276.53;;;24.40;66.45
31771;BME280;18343;50.152;8.182;2022-07-29T12:13:10;97274.84;;;24.44;65.71
31771;BME280;18343;50.152;8.182;2022-07-29T12:15:38;97272.91;;;24.44;65.86
31771;BME280;18343;50.152;8.182;2022-07-29T12:18:18;97273.75;;;24.45;65.94
31771;BME280;18343;50.152;8.182;2022-07-29T12:20:46;97270.72;;;24.46;65.13
31771;BME280;18343;50.152;8.182;2022-07-29T12:23:15;97271.53;;;24.47;65.23
31771;BME280;18343;50.152;8.182;2022-07-29T12:25:43;97261.06;;;24.49;65.01
31771;BME280;18343;50.152;8.182;2022-07-29T12:28:13;97274.53;;;24.50;64.66
31771;BME280;18343;50.152;8.182;2022-07-29T12:30:44;97287.19;;;24.51;64.83
31771;BME280;18343;50.152;8.182;2022-07-29T12:33:19;97295.69;;;24.55;65.23
31771;BME280;18343;50.152;8.182;2022-07-29T12:35:49;97306.09;;;24.58;65.25
31771;BME280;18343;50.152;8.182;2022-07-29T12:38:17;97306.66;;;24.60;65.37
31771;BME280;18343;50.152;8.182;2022-07-29T12:40:46;97298.41;;;24.60;65.93
31771;BME280;18343;50.152;8.182;2022-07-29T12:43:16;97309.41;;;24.60;66.75
31771;BME280;18343;50.152;8.182;2022-07-29T12:45:46;97310.22;;;24.60;66.77
31771;BME280;18343;50.152;8.182;2022-07-29T12:48:16;97314.34;;;24.58;67.21
31771;BME280;18343;50.152;8.182;2022-07-29T12:50:57;97318.78;;;24.54;66.49
31771;BME280;18343;50.152;8.182;2022-07-29T12:53:25;97322.63;;;24.53;67.45
31771;BME280;18343;50.152;8.182;2022-07-29T12:55:55;97332.28;;;24.45;67.04
31771;BME280;18343;50.152;8.182;2022-07-29T12:58:32;97331.53;;;24.35;67.12
31771;BME280;18343;50.152;8.182;2022-07-29T13:01:07;97343.13;;;24.26;67.37
31771;BME280;18343;50.152;8.182;2022-07-29T13:03:48;97392.59;;;24.16;67.03
31771;BME280;18343;50.152;8.182;2022-07-29T13:06:31;97397.31;;;24.06;67.38
31771;BME280;18343;50.152;8.182;2022-07-29T13:09:05;97392.13;;;23.99;67.39
31771;BME280;18343;50.152;8.182;2022-07-29T13:11:34;97395.16;;;23.92;68.28
31771;BME280;18343;50.152;8.182;2022-07-29T13:14:01;97385.00;;;23.88;68.07
31771;BME280;18343;50.152;8.182;2022-07-29T13:16:29;97349.03;;;23.84;68.86
31771;BME280;18343;50.152;8.182;2022-07-29T13:19:10;97343.00;;;23.82;68.59